createdAt,value
2018-04-02T00:00:12.544Z,0.00
2018-04-02T00:01:12.572Z,0.00
2018-04-02T00:02:12.596Z,0.00
2018-04-02T00:03:12.622Z,0.00
2018-04-02T00:04:12.648Z,0.00
2018-04-02T00:05:12.674Z,0.00
2018-04-02T00:06:12.700Z,0.00
2018-04-02T00:07:12.728Z,0.00
2018-04-02T00:08:12.760Z,0.00
2018-04-02T00:09:12.779Z,0.00
2018-04-02T00:10:12.803Z,0.00
2018-04-02T00:11:12.829Z,0.00
2018-04-02T00:12:12.856Z,0.00
2018-04-02T00:13:12.881Z,0.00
2018-04-02T00:14:12.908Z,0.00
2018-04-02T00:15:12.932Z,0.00
2018-04-02T00:16:12.958Z,0.00
2018-04-02T00:17:12.988Z,0.00
2018-04-02T00:18:13.011Z,0.00
2018-04-02T00:19:13.037Z,0.00
2018-04-02T00:20:13.063Z,0.00
2018-04-02T00:21:13.088Z,0.00
2018-04-02T00:22:13.115Z,0.00
2018-04-02T00:23:13.140Z,0.00
2018-04-02T00:24:13.165Z,0.00
2018-04-02T00:25:13.200Z,0.00
2018-04-02T00:26:13.224Z,0.00
2018-04-02T00:27:13.244Z,0.00
2018-04-02T00:28:13.270Z,0.00
2018-04-02T00:29:13.302Z,0.00
2018-04-02T00:30:13.321Z,0.00
2018-04-02T00:31:13.347Z,0.00
2018-04-02T00:32:13.373Z,0.00
2018-04-02T00:33:13.399Z,0.00
2018-04-02T00:34:13.425Z,0.00
2018-04-02T00:35:13.452Z,0.00
2018-04-02T00:36:13.477Z,0.00
2018-04-02T00:37:13.503Z,0.00
2018-04-02T00:38:13.528Z,0.00
2018-04-02T00:39:13.554Z,0.00
2018-04-02T00:40:13.579Z,0.00
2018-04-02T00:41:13.605Z,0.00
2018-04-02T00:42:13.630Z,0.00
2018-04-02T00:43:13.655Z,0.00
2018-04-02T00:44:13.683Z,0.00
2018-04-02T00:45:13.708Z,0.00
2018-04-02T00:46:13.734Z,0.00
2018-04-02T00:47:13.759Z,0.00
2018-04-02T00:48:13.785Z,0.00
2018-04-02T00:49:13.810Z,0.00
2018-04-02T00:50:13.838Z,0.00
2018-04-02T00:51:13.864Z,0.00
2018-04-02T00:52:13.893Z,0.00
2018-04-02T00:53:13.916Z,0.00
2018-04-02T00:54:13.941Z,0.00
2018-04-02T00:55:13.966Z,0.00
2018-04-02T00:56:13.993Z,0.00
2018-04-02T00:57:14.017Z,0.00
2018-04-02T00:58:14.044Z,0.00
2018-04-02T00:59:14.067Z,0.00
2018-04-02T01:00:14.095Z,0.00
2018-04-02T01:01:14.124Z,0.00
2018-04-02T01:02:14.147Z,0.00
2018-04-02T01:03:14.173Z,0.00
2018-04-02T01:04:14.198Z,0.00
2018-04-02T01:05:14.245Z,0.00
2018-04-02T01:06:14.250Z,0.00
2018-04-02T01:07:14.275Z,0.00
2018-04-02T01:08:14.301Z,0.00
2018-04-02T01:09:14.326Z,0.00
2018-04-02T01:10:14.353Z,0.00
2018-04-02T01:11:14.378Z,0.00
2018-04-02T01:12:14.405Z,0.00
2018-04-02T01:13:14.428Z,0.00
2018-04-02T01:14:14.460Z,0.00
2018-04-02T01:15:14.487Z,0.00
2018-04-02T01:16:14.506Z,0.00
2018-04-02T01:17:14.531Z,0.00
2018-04-02T01:18:14.558Z,0.00
2018-04-02T01:19:14.583Z,0.00
2018-04-02T01:20:14.607Z,0.00
2018-04-02T01:21:14.634Z,0.00
2018-04-02T01:22:14.660Z,0.00
2018-04-02T01:23:14.685Z,0.00
2018-04-02T01:24:14.711Z,0.00
2018-04-02T01:25:14.737Z,0.00
2018-04-02T01:26:14.762Z,0.00
2018-04-02T01:27:14.789Z,0.00
2018-04-02T01:28:14.814Z,0.00
2018-04-02T01:29:14.838Z,0.00
2018-04-02T01:30:14.865Z,0.00
2018-04-02T01:31:14.892Z,0.00
2018-04-02T01:32:14.921Z,0.00
2018-04-02T01:33:14.941Z,0.00
2018-04-02T01:34:14.972Z,0.00
2018-04-02T01:35:14.992Z,0.00
2018-04-02T01:36:15.016Z,0.00
2018-04-02T01:37:15.042Z,0.00
2018-04-02T01:38:15.068Z,0.00
2018-04-02T01:39:15.093Z,0.00
2018-04-02T01:40:15.120Z,0.00
2018-04-02T01:41:15.146Z,0.00
2018-04-02T01:42:15.169Z,0.00
2018-04-02T01:43:15.195Z,0.00
2018-04-02T01:44:15.220Z,0.00
2018-04-02T01:45:15.247Z,0.00
2018-04-02T01:46:15.272Z,0.00
2018-04-02T01:47:15.297Z,0.00
2018-04-02T01:48:15.322Z,0.00
2018-04-02T01:49:15.349Z,0.00
2018-04-02T01:50:15.374Z,0.00
2018-04-02T01:51:15.399Z,0.00
2018-04-02T01:52:15.425Z,0.00
2018-04-02T01:53:15.449Z,0.00
2018-04-02T01:54:15.476Z,0.00
2018-04-02T01:55:15.500Z,0.00
2018-04-02T01:56:15.526Z,0.00
2018-04-02T01:57:15.555Z,0.00
2018-04-02T01:58:15.577Z,0.00
2018-04-02T01:59:15.602Z,0.00
2018-04-02T02:00:15.627Z,0.00
2018-04-02T02:01:15.656Z,0.00
2018-04-02T02:02:15.679Z,0.00
2018-04-02T02:03:15.703Z,0.00
2018-04-02T02:04:15.730Z,0.00
2018-04-02T02:05:15.754Z,0.00
2018-04-02T02:06:15.780Z,0.00
2018-04-02T02:07:15.812Z,0.00
2018-04-02T02:08:15.831Z,0.00
2018-04-02T02:09:15.858Z,0.00
2018-04-02T02:10:15.883Z,0.00
2018-04-02T02:11:15.909Z,0.00
2018-04-02T02:12:15.934Z,0.00
2018-04-02T02:13:15.960Z,0.00
2018-04-02T02:14:15.990Z,0.00
2018-04-02T02:15:16.010Z,0.00
2018-04-02T02:16:16.036Z,0.00
2018-04-02T02:17:16.063Z,0.00
2018-04-02T02:18:16.089Z,0.00
2018-04-02T02:19:16.111Z,0.00
2018-04-02T02:20:16.139Z,0.00
2018-04-02T02:21:16.165Z,0.00
2018-04-02T02:22:16.191Z,0.00
2018-04-02T02:23:16.215Z,0.00
2018-04-02T02:24:16.241Z,0.00
2018-04-02T02:25:16.267Z,0.00
2018-04-02T02:26:16.293Z,0.00
2018-04-02T02:27:16.316Z,0.00
2018-04-02T02:28:16.343Z,0.00
2018-04-02T02:29:16.369Z,0.00
2018-04-02T02:30:16.398Z,0.00
2018-04-02T02:31:16.423Z,0.00
2018-04-02T02:32:16.448Z,0.00
2018-04-02T02:33:16.472Z,0.00
2018-04-02T02:34:16.497Z,0.00
2018-04-02T02:35:16.523Z,0.00
2018-04-02T02:36:16.549Z,0.00
2018-04-02T02:37:16.574Z,0.00
2018-04-02T02:38:16.598Z,0.00
2018-04-02T02:39:16.625Z,0.00
2018-04-02T02:40:16.649Z,0.00
2018-04-02T02:41:16.676Z,0.00
2018-04-02T02:42:16.701Z,0.00
2018-04-02T02:43:16.741Z,0.00
2018-04-02T02:44:16.754Z,0.00
2018-04-02T02:45:16.778Z,0.00
2018-04-02T02:46:16.805Z,0.00
2018-04-02T02:47:16.831Z,0.00
2018-04-02T02:48:16.855Z,0.00
2018-04-02T02:49:16.880Z,0.00
2018-04-02T02:50:16.911Z,0.00
2018-04-02T02:51:16.931Z,0.00
2018-04-02T02:52:16.957Z,0.00
2018-04-02T02:53:16.984Z,0.00
2018-04-02T02:54:17.009Z,0.00
2018-04-02T02:55:17.032Z,0.00
2018-04-02T02:56:17.059Z,0.00
2018-04-02T02:57:17.085Z,0.00
2018-04-02T02:58:17.110Z,0.00
2018-04-02T02:59:17.135Z,0.00
2018-04-02T03:00:17.159Z,0.00
2018-04-02T03:01:17.187Z,0.00
2018-04-02T03:02:17.215Z,0.00
2018-04-02T03:03:17.282Z,0.00
2018-04-02T03:04:17.262Z,0.00
2018-04-02T03:05:17.290Z,0.00
2018-04-02T03:06:17.314Z,0.00
2018-04-02T03:07:17.337Z,0.00
2018-04-02T03:08:17.365Z,0.00
2018-04-02T03:09:17.390Z,0.00
2018-04-02T03:10:17.415Z,0.00
2018-04-02T03:11:17.439Z,0.00
2018-04-02T03:12:17.465Z,0.00
2018-04-02T03:13:17.491Z,0.00
2018-04-02T03:14:17.518Z,0.00
2018-04-02T03:15:17.541Z,0.00
2018-04-02T03:16:17.567Z,0.00
2018-04-02T03:17:17.593Z,0.00
2018-04-02T03:18:17.618Z,0.00
2018-04-02T03:19:17.645Z,0.00
2018-04-02T03:20:17.667Z,0.00
2018-04-02T03:21:17.694Z,0.00
2018-04-02T03:22:17.725Z,0.00
2018-04-02T03:23:17.744Z,0.00
2018-04-02T03:24:17.776Z,0.00
2018-04-02T03:25:17.796Z,0.00
2018-04-02T03:26:17.821Z,0.00
2018-04-02T03:27:17.848Z,0.00
2018-04-02T03:28:17.875Z,0.00
2018-04-02T03:29:17.897Z,0.00
2018-04-02T03:30:17.923Z,0.00
2018-04-02T03:31:17.948Z,0.00
2018-04-02T03:32:17.973Z,0.00
2018-04-02T03:33:17.997Z,0.00
2018-04-02T03:34:18.024Z,0.00
2018-04-02T03:35:18.049Z,0.00
2018-04-02T03:36:18.075Z,0.00
2018-04-02T03:37:18.100Z,0.00
2018-04-02T03:38:18.125Z,0.00
2018-04-02T03:39:18.155Z,0.00
2018-04-02T03:40:18.175Z,0.00
2018-04-02T03:41:18.202Z,0.00
2018-04-02T03:42:18.225Z,0.00
2018-04-02T03:43:18.252Z,0.00
2018-04-02T03:44:18.277Z,0.00
2018-04-02T03:45:18.302Z,0.00
2018-04-02T03:46:18.333Z,0.00
2018-04-02T03:47:18.354Z,0.00
2018-04-02T03:48:18.378Z,0.00
2018-04-02T03:49:18.403Z,0.00
2018-04-02T03:50:18.429Z,0.00
2018-04-02T03:51:18.452Z,0.00
2018-04-02T03:52:18.479Z,0.00
2018-04-02T03:53:18.504Z,0.00
2018-04-02T03:54:18.530Z,0.00
2018-04-02T03:55:18.554Z,0.00
2018-04-02T03:56:18.580Z,0.00
2018-04-02T03:57:18.605Z,0.00
2018-04-02T03:58:18.631Z,0.00
2018-04-02T03:59:18.657Z,0.00
2018-04-02T04:00:18.681Z,0.00
2018-04-02T04:01:18.706Z,0.00
2018-04-02T04:02:18.732Z,0.00
2018-04-02T04:03:18.756Z,0.00
2018-04-02T04:04:18.781Z,0.00
2018-04-02T04:05:18.807Z,0.00
2018-04-02T04:06:18.834Z,0.00
2018-04-02T04:07:18.857Z,0.00
2018-04-02T04:08:18.881Z,0.00
2018-04-02T04:09:18.908Z,0.00
2018-04-02T04:10:18.932Z,0.00
2018-04-02T04:11:18.957Z,0.00
2018-04-02T04:12:18.983Z,0.00
2018-04-02T04:13:19.012Z,0.00
2018-04-02T04:14:19.034Z,0.00
2018-04-02T04:15:19.059Z,0.00
2018-04-02T04:16:19.083Z,0.00
2018-04-02T04:17:19.109Z,0.00
2018-04-02T04:18:19.134Z,0.00
2018-04-02T04:19:19.158Z,0.00
2018-04-02T04:20:19.183Z,0.00
2018-04-02T04:21:19.210Z,0.00
2018-04-02T04:22:19.234Z,0.00
2018-04-02T04:23:19.258Z,0.00
2018-04-02T04:24:19.283Z,0.00
2018-04-02T04:25:19.308Z,0.00
2018-04-02T04:26:19.334Z,0.00
2018-04-02T04:27:19.358Z,0.00
2018-04-02T04:28:19.383Z,0.00
2018-04-02T04:29:19.408Z,0.00
2018-04-02T04:30:19.434Z,0.00
2018-04-02T04:31:19.465Z,0.00
2018-04-02T04:32:19.487Z,0.00
2018-04-02T04:33:19.512Z,0.00
2018-04-02T04:34:19.534Z,0.00
2018-04-02T04:35:19.560Z,0.00
2018-04-02T04:36:19.583Z,4.00
2018-04-02T04:37:19.608Z,0.00
2018-04-02T04:38:19.634Z,4.00
2018-04-02T04:39:19.659Z,4.00
2018-04-02T04:40:19.694Z,4.00
2018-04-02T04:41:19.709Z,4.00
2018-04-02T04:42:19.734Z,4.00
2018-04-02T04:43:19.759Z,4.00
2018-04-02T04:44:19.788Z,12.00
2018-04-02T04:45:19.810Z,8.00
2018-04-02T04:46:19.834Z,12.00
2018-04-02T04:47:19.858Z,16.00
2018-04-02T04:48:19.884Z,20.00
2018-04-02T04:49:19.908Z,20.00
2018-04-02T04:50:19.933Z,28.00
2018-04-02T04:51:19.960Z,32.00
2018-04-02T04:52:19.982Z,36.00
2018-04-02T04:53:20.008Z,40.00
2018-04-02T04:54:20.033Z,48.00
2018-04-02T04:55:20.058Z,56.00
2018-04-02T04:56:20.086Z,68.00
2018-04-02T04:57:20.108Z,80.00
2018-04-02T04:58:20.132Z,92.00
2018-04-02T04:59:20.162Z,104.00
2018-04-02T05:00:20.191Z,116.00
2018-04-02T05:01:20.208Z,136.00
2018-04-02T05:02:20.232Z,152.00
2018-04-02T05:03:20.258Z,168.00
2018-04-02T05:04:20.284Z,188.00
2018-04-02T05:05:20.308Z,212.00
2018-04-02T05:06:20.334Z,236.00
2018-04-02T05:07:20.357Z,260.00
2018-04-02T05:08:20.382Z,292.00
2018-04-02T05:09:20.413Z,316.00
2018-04-02T05:10:20.433Z,348.00
2018-04-02T05:11:20.465Z,384.00
2018-04-02T05:12:20.538Z,424.00
2018-04-02T05:13:20.508Z,464.00
2018-04-02T05:14:20.533Z,500.00
2018-04-02T05:15:20.556Z,540.00
2018-04-02T05:16:20.583Z,576.00
2018-04-02T05:17:20.607Z,612.00
2018-04-02T05:18:20.633Z,656.00
2018-04-02T05:19:20.656Z,704.00
2018-04-02T05:20:20.683Z,744.00
2018-04-02T05:21:20.712Z,780.00
2018-04-02T05:22:20.738Z,820.00
2018-04-02T05:23:20.757Z,860.00
2018-04-02T05:24:20.782Z,904.00
2018-04-02T05:25:20.806Z,948.00
2018-04-02T05:26:20.833Z,992.00
2018-04-02T05:27:20.857Z,1028.00
2018-04-02T05:28:20.882Z,1068.00
2018-04-02T05:29:20.909Z,1112.00
2018-04-02T05:30:20.933Z,1160.00
2018-04-02T05:31:20.959Z,1204.00
2018-04-02T05:32:20.982Z,1248.00
2018-04-02T05:33:21.007Z,1296.00
2018-04-02T05:34:21.033Z,1340.00
2018-04-02T05:35:21.057Z,1380.00
2018-04-02T05:36:21.083Z,1408.00
2018-04-02T05:37:21.110Z,1472.00
2018-04-02T05:38:21.137Z,1544.00
2018-04-02T05:39:21.157Z,1580.00
2018-04-02T05:40:21.181Z,1632.00
2018-04-02T05:41:21.209Z,1720.00
2018-04-02T05:42:21.232Z,1768.00
2018-04-02T05:43:21.256Z,1808.00
2018-04-02T05:44:21.281Z,1916.00
2018-04-02T05:45:21.308Z,2036.00
2018-04-02T05:46:21.332Z,2164.00
2018-04-02T05:47:21.358Z,2288.00
2018-04-02T05:48:21.381Z,2408.00
2018-04-02T05:49:21.407Z,2536.00
2018-04-02T05:50:21.435Z,2668.00
2018-04-02T05:51:21.458Z,2780.00
2018-04-02T05:52:21.483Z,2944.00
2018-04-02T05:53:21.508Z,3072.00
2018-04-02T05:54:21.534Z,3260.00
2018-04-02T05:55:21.560Z,3460.00
2018-04-02T05:56:21.587Z,3604.00
2018-04-02T05:57:21.609Z,3716.00
2018-04-02T05:58:21.635Z,3836.00
2018-04-02T05:59:21.662Z,3960.00
2018-04-02T06:00:21.686Z,4024.00
2018-04-02T06:01:21.711Z,4168.00
2018-04-02T06:02:21.737Z,4280.00
2018-04-02T06:03:21.761Z,4344.00
2018-04-02T06:04:21.788Z,4392.00
2018-04-02T06:05:21.814Z,4392.00
2018-04-02T06:06:21.840Z,4376.00
2018-04-02T06:07:21.865Z,4364.00
2018-04-02T06:08:21.894Z,4300.00
2018-04-02T06:09:21.916Z,4232.00
2018-04-02T06:10:21.943Z,4220.00
2018-04-02T06:11:21.971Z,4136.00
2018-04-02T06:12:21.994Z,4088.00
2018-04-02T06:13:22.021Z,4052.00
2018-04-02T06:14:22.047Z,3732.00
2018-04-02T06:15:22.072Z,3692.00
2018-04-02T06:16:22.099Z,3704.00
2018-04-02T06:17:22.125Z,3612.00
2018-04-02T06:18:22.151Z,3556.00
2018-04-02T06:19:22.179Z,3528.00
2018-04-02T06:20:22.204Z,3516.00
2018-04-02T06:21:22.231Z,3528.00
2018-04-02T06:22:22.261Z,3524.00
2018-04-02T06:23:22.284Z,3528.00
2018-04-02T06:24:22.310Z,3548.00
2018-04-02T06:25:22.336Z,3596.00
2018-04-02T06:26:22.362Z,3656.00
2018-04-02T06:27:22.386Z,3716.00
2018-04-02T06:28:22.414Z,3760.00
2018-04-02T06:29:22.440Z,3800.00
2018-04-02T06:30:22.468Z,3872.00
2018-04-02T06:31:22.496Z,3960.00
2018-04-02T06:32:22.520Z,4052.00
2018-04-02T06:33:22.546Z,4184.00
2018-04-02T06:34:22.573Z,4312.00
2018-04-02T06:35:22.599Z,4444.00
2018-04-02T06:36:22.626Z,4656.00
2018-04-02T06:37:22.653Z,4932.00
2018-04-02T06:38:22.688Z,5232.00
2018-04-02T06:39:22.705Z,5516.00
2018-04-02T06:40:22.742Z,5824.00
2018-04-02T06:41:22.759Z,6192.00
2018-04-02T06:42:22.787Z,6512.00
2018-04-02T06:43:22.812Z,6684.00
2018-04-02T06:44:22.840Z,6800.00
2018-04-02T06:45:22.865Z,6840.00
2018-04-02T06:46:22.894Z,6808.00
2018-04-02T06:47:22.919Z,6728.00
2018-04-02T06:48:22.949Z,6692.00
2018-04-02T06:49:22.973Z,6644.00
2018-04-02T06:50:23.007Z,6640.00
2018-04-02T06:51:23.027Z,6732.00
2018-04-02T06:52:23.054Z,6796.00
2018-04-02T06:53:23.082Z,6732.00
2018-04-02T06:54:23.109Z,6552.00
2018-04-02T06:55:23.138Z,6352.00
2018-04-02T06:56:23.163Z,6184.00
2018-04-02T06:57:23.190Z,6068.00
2018-04-02T06:58:23.218Z,5900.00
2018-04-02T06:59:23.245Z,5732.00
2018-04-02T07:00:23.274Z,5596.00
2018-04-02T07:01:23.300Z,5500.00
2018-04-02T07:02:23.328Z,5428.00
2018-04-02T07:03:23.354Z,5400.00
2018-04-02T07:04:23.381Z,5464.00
2018-04-02T07:05:23.409Z,5680.00
2018-04-02T07:06:23.437Z,6028.00
2018-04-02T07:07:23.463Z,6468.00
2018-04-02T07:08:23.491Z,6872.00
2018-04-02T07:09:23.518Z,7324.00
2018-04-02T07:10:23.546Z,8004.00
2018-04-02T07:11:23.575Z,8248.00
2018-04-02T07:12:23.602Z,8492.00
2018-04-02T07:13:23.630Z,8764.00
2018-04-02T07:14:23.657Z,9208.00
2018-04-02T07:15:23.684Z,10144.00
2018-04-02T07:16:23.712Z,10316.00
2018-04-02T07:17:23.804Z,10504.00
2018-04-02T07:18:23.768Z,10832.00
2018-04-02T07:19:23.796Z,11188.00
2018-04-02T07:20:23.826Z,11308.00
2018-04-02T07:21:23.852Z,11136.00
2018-04-02T07:22:23.881Z,11020.00
2018-04-02T07:23:23.908Z,11304.00
2018-04-02T07:24:23.937Z,11024.00
2018-04-02T07:25:23.967Z,10876.00
2018-04-02T07:26:23.994Z,10660.00
2018-04-02T07:27:24.024Z,10568.00
2018-04-02T07:28:24.050Z,10432.00
2018-04-02T07:29:24.084Z,10200.00
2018-04-02T07:30:24.107Z,10016.00
2018-04-02T07:31:24.136Z,9852.00
2018-04-02T07:32:24.165Z,9728.00
2018-04-02T07:33:24.194Z,9732.00
2018-04-02T07:34:24.223Z,9748.00
2018-04-02T07:35:24.251Z,9816.00
2018-04-02T07:36:24.280Z,9744.00
2018-04-02T07:37:24.348Z,9708.00
2018-04-02T07:38:24.337Z,9700.00
2018-04-02T07:39:24.367Z,9620.00
2018-04-02T07:40:24.396Z,9524.00
2018-04-02T07:41:24.425Z,9468.00
2018-04-02T07:42:24.456Z,9412.00
2018-04-02T07:43:24.484Z,9388.00
2018-04-02T07:44:24.539Z,9420.00
2018-04-02T07:45:24.540Z,9580.00
2018-04-02T07:46:24.569Z,9848.00
2018-04-02T07:47:24.597Z,10120.00
2018-04-02T07:48:24.627Z,10352.00
2018-04-02T07:49:24.657Z,10532.00
2018-04-02T07:50:24.688Z,10624.00
2018-04-02T07:51:24.715Z,10792.00
2018-04-02T07:52:24.744Z,11032.00
2018-04-02T07:53:24.782Z,11324.00
2018-04-02T07:54:24.803Z,11656.00
2018-04-02T07:55:24.837Z,11944.00
2018-04-02T07:56:24.862Z,12240.00
2018-04-02T07:57:24.892Z,12476.00
2018-04-02T07:58:24.922Z,12676.00
2018-04-02T07:59:24.951Z,12976.00
2018-04-02T08:00:24.981Z,13236.00
2018-04-02T08:01:25.011Z,13412.00
2018-04-02T08:02:25.041Z,13472.00
2018-04-02T08:03:25.076Z,13496.00
2018-04-02T08:04:25.100Z,13548.00
2018-04-02T08:05:25.131Z,13384.00
2018-04-02T08:06:25.161Z,13160.00
2018-04-02T08:07:25.191Z,13128.00
2018-04-02T08:08:25.222Z,12920.00
2018-04-02T08:09:25.316Z,12920.00
2018-04-02T08:10:25.284Z,12976.00
2018-04-02T08:11:25.315Z,13024.00
2018-04-02T08:12:25.343Z,13140.00
2018-04-02T08:13:25.373Z,13328.00
2018-04-02T08:14:25.410Z,13572.00
2018-04-02T08:15:25.435Z,13700.00
2018-04-02T08:16:25.466Z,13764.00
2018-04-02T08:17:25.497Z,13724.00
2018-04-02T08:18:25.529Z,13620.00
2018-04-02T08:19:25.558Z,13596.00
2018-04-02T08:20:25.590Z,13560.00
2018-04-02T08:21:25.620Z,13500.00
2018-04-02T08:22:25.652Z,13300.00
2018-04-02T08:23:25.683Z,13320.00
2018-04-02T08:24:25.718Z,13952.00
2018-04-02T08:25:25.790Z,13252.00
2018-04-02T08:26:25.777Z,13140.00
2018-04-02T08:27:25.808Z,12992.00
2018-04-02T08:28:25.841Z,12368.00
2018-04-02T08:29:25.871Z,11700.00
2018-04-02T08:30:25.902Z,10960.00
2018-04-02T08:31:25.933Z,10208.00
2018-04-02T08:32:25.968Z,10592.00
2018-04-02T08:33:25.998Z,11756.00
2018-04-02T08:34:26.030Z,12092.00
2018-04-02T08:35:26.061Z,12132.00
2018-04-02T08:36:26.129Z,10424.00
2018-04-02T08:37:26.126Z,11804.00
2018-04-02T08:38:26.157Z,9648.00
2018-04-02T08:39:26.192Z,10304.00
2018-04-02T08:40:26.221Z,10632.00
2018-04-02T08:41:26.252Z,11428.00
2018-04-02T08:42:26.285Z,11184.00
2018-04-02T08:43:26.317Z,11240.00
2018-04-02T08:44:26.349Z,11384.00
2018-04-02T08:45:26.382Z,11856.00
2018-04-02T08:46:26.415Z,12540.00
2018-04-02T08:47:26.448Z,13480.00
2018-04-02T08:48:26.485Z,14756.00
2018-04-02T08:49:26.513Z,16216.00
2018-04-02T08:50:26.546Z,16544.00
2018-04-02T08:51:26.590Z,16928.00
2018-04-02T08:52:26.612Z,17216.00
2018-04-02T08:53:26.645Z,17536.00
2018-04-02T08:54:26.682Z,16960.00
2018-04-02T08:55:26.712Z,17440.00
2018-04-02T08:56:26.748Z,18400.00
2018-04-02T08:57:26.780Z,18912.00
2018-04-02T08:58:26.814Z,19712.00
2018-04-02T08:59:26.847Z,18592.00
2018-04-02T09:00:26.882Z,18176.00
2018-04-02T09:01:26.915Z,17440.00
2018-04-02T09:02:26.950Z,16928.00
2018-04-02T09:03:26.984Z,16176.00
2018-04-02T09:04:27.022Z,16168.00
2018-04-02T09:05:27.052Z,17184.00
2018-04-02T09:06:27.087Z,18048.00
2018-04-02T09:07:27.121Z,19808.00
2018-04-02T09:08:27.156Z,28544.00
2018-04-02T09:09:27.191Z,46688.00
2018-04-02T09:10:27.226Z,39392.00
2018-04-02T09:11:27.261Z,42336.00
2018-04-02T09:12:27.297Z,54624.00
2018-04-02T09:13:27.333Z,62336.00
2018-04-02T09:14:27.369Z,61472.00
2018-04-02T09:15:27.406Z,65600.00
2018-04-02T09:16:27.442Z,62400.00
2018-04-02T09:17:27.478Z,56032.00
2018-04-02T09:18:27.517Z,55648.00
2018-04-02T09:19:27.554Z,53344.00
2018-04-02T09:20:27.591Z,54624.00
2018-04-02T09:21:27.630Z,46560.00
2018-04-02T09:22:27.671Z,49280.00
2018-04-02T09:23:27.707Z,44320.00
2018-04-02T09:24:27.746Z,31776.00
2018-04-02T09:25:27.786Z,34048.00
2018-04-02T09:26:27.826Z,39136.00
2018-04-02T09:27:27.864Z,41216.00
2018-04-02T09:28:27.903Z,39904.00
2018-04-02T09:29:27.944Z,38112.00
2018-04-02T09:30:27.982Z,53760.00
2018-04-02T09:31:28.022Z,49760.00
2018-04-02T09:32:28.061Z,46112.00
2018-04-02T09:33:28.101Z,49920.00
2018-04-02T09:34:28.144Z,50432.00
2018-04-02T09:35:28.226Z,49120.00
2018-04-02T09:36:28.221Z,45888.00
2018-04-02T09:37:28.258Z,45344.00
2018-04-02T09:38:28.300Z,50816.00
2018-04-02T09:39:28.340Z,48096.00
2018-04-02T09:40:28.381Z,55232.00
2018-04-02T09:41:28.420Z,55136.00
2018-04-02T09:42:28.460Z,55904.00
2018-04-02T09:43:28.501Z,60640.00
2018-04-02T09:44:28.541Z,61376.00
2018-04-02T09:45:28.584Z,61312.00
2018-04-02T09:46:28.624Z,66368.00
2018-04-02T09:47:28.664Z,65408.00
2018-04-02T09:48:28.707Z,68160.00
2018-04-02T09:49:28.749Z,68288.00
2018-04-02T09:50:28.792Z,68512.00
2018-04-02T09:51:28.832Z,65312.00
2018-04-02T09:52:28.874Z,65312.00
2018-04-02T09:53:28.917Z,66496.00
2018-04-02T09:54:28.964Z,67520.00
2018-04-02T09:55:29.003Z,65920.00
2018-04-02T09:56:29.046Z,65568.00
2018-04-02T09:57:29.090Z,58432.00
2018-04-02T09:58:29.133Z,51360.00
2018-04-02T09:59:29.185Z,49728.00
2018-04-02T10:00:29.220Z,56096.00
2018-04-02T10:01:29.262Z,54528.00
2018-04-02T10:02:29.306Z,54880.00
2018-04-02T10:03:29.348Z,56864.00
2018-04-02T10:04:29.433Z,60288.00
2018-04-02T10:05:29.437Z,62304.00
2018-04-02T10:06:29.480Z,63776.00
2018-04-02T10:07:29.524Z,65600.00
2018-04-02T10:08:29.573Z,69056.00
2018-04-02T10:09:29.611Z,70656.00
2018-04-02T10:10:29.750Z,74240.00
2018-04-02T10:11:29.699Z,74624.00
2018-04-02T10:12:29.743Z,81664.00
2018-04-02T10:13:29.788Z,81408.00
2018-04-02T10:14:29.833Z,82560.00
2018-04-02T10:15:29.956Z,85792.00
2018-04-02T10:16:29.922Z,83520.00
2018-04-02T10:17:29.967Z,81600.00
2018-04-02T10:18:30.012Z,83968.00
2018-04-02T10:19:30.058Z,82880.00
2018-04-02T10:20:30.104Z,88352.00
2018-04-02T10:21:30.151Z,90496.00
2018-04-02T10:22:30.197Z,93632.00
2018-04-02T10:23:30.242Z,90624.00
2018-04-02T10:24:30.289Z,90592.00
2018-04-02T10:25:30.336Z,88576.00
2018-04-02T10:26:30.384Z,85472.00
2018-04-02T10:27:30.430Z,87104.00
2018-04-02T10:28:30.479Z,82944.00
2018-04-02T10:29:30.526Z,87296.00
2018-04-02T10:30:30.575Z,88736.00
2018-04-02T10:31:30.624Z,94144.00
2018-04-02T10:32:30.672Z,92448.00
2018-04-02T10:33:30.721Z,91072.00
2018-04-02T10:34:30.770Z,89344.00
2018-04-02T10:35:30.822Z,89312.00
2018-04-02T10:36:30.867Z,86816.00
2018-04-02T10:37:30.916Z,92480.00
2018-04-02T10:38:30.965Z,89280.00
2018-04-02T10:39:31.015Z,90944.00
2018-04-02T10:40:31.065Z,91200.00
2018-04-02T10:41:31.115Z,89056.00
2018-04-02T10:42:31.165Z,80096.00
2018-04-02T10:43:31.212Z,78304.00
2018-04-02T10:44:31.264Z,80800.00
2018-04-02T10:45:31.313Z,87840.00
2018-04-02T10:46:31.364Z,84480.00
2018-04-02T10:47:31.414Z,76768.00
2018-04-02T10:48:31.494Z,75520.00
2018-04-02T10:49:31.514Z,69504.00
2018-04-02T10:50:31.564Z,68384.00
2018-04-02T10:51:31.613Z,71200.00
2018-04-02T10:52:31.665Z,78400.00
2018-04-02T10:53:31.717Z,81408.00
2018-04-02T10:54:31.765Z,73888.00
2018-04-02T10:55:31.815Z,70176.00
2018-04-02T10:56:31.864Z,74240.00
2018-04-02T10:57:31.916Z,77824.00
2018-04-02T10:58:31.965Z,80352.00
2018-04-02T10:59:32.016Z,86336.00
2018-04-02T11:00:32.066Z,86560.00
2018-04-02T11:01:32.115Z,86144.00
2018-04-02T11:02:32.165Z,89632.00
2018-04-02T11:03:32.214Z,90112.00
2018-04-02T11:04:32.266Z,86944.00
2018-04-02T11:05:32.317Z,90720.00
2018-04-02T11:06:32.366Z,93088.00
2018-04-02T11:07:32.416Z,88192.00
2018-04-02T11:08:32.466Z,89504.00
2018-04-02T11:09:32.517Z,72352.00
2018-04-02T11:10:32.567Z,81536.00
2018-04-02T11:11:32.617Z,75488.00
2018-04-02T11:12:32.713Z,80608.00
2018-04-02T11:13:32.718Z,83264.00
2018-04-02T11:14:32.769Z,69472.00
2018-04-02T11:15:32.819Z,75712.00
2018-04-02T11:16:32.869Z,85504.00
2018-04-02T11:17:32.920Z,90400.00
2018-04-02T11:18:32.981Z,94240.00
2018-04-02T11:19:33.019Z,69760.00
2018-04-02T11:20:33.070Z,78464.00
2018-04-02T11:21:33.121Z,87616.00
2018-04-02T11:22:33.170Z,92800.00
2018-04-02T11:23:33.220Z,91840.00
2018-04-02T11:24:33.269Z,91168.00
2018-04-02T11:25:33.320Z,79968.00
2018-04-02T11:26:33.371Z,76992.00
2018-04-02T11:27:33.420Z,68352.00
2018-04-02T11:28:33.470Z,52928.00
2018-04-02T11:29:33.521Z,44352.00
2018-04-02T11:30:33.571Z,37600.00
2018-04-02T11:31:33.630Z,34528.00
2018-04-02T11:32:33.671Z,32224.00
2018-04-02T11:33:33.721Z,34400.00
2018-04-02T11:34:33.771Z,32384.00
2018-04-02T11:35:33.819Z,34464.00
2018-04-02T11:36:33.871Z,34304.00
2018-04-02T11:37:33.918Z,36416.00
2018-04-02T11:38:33.968Z,39936.00
2018-04-02T11:39:34.016Z,41312.00
2018-04-02T11:40:34.062Z,40992.00
2018-04-02T11:41:34.106Z,43072.00
2018-04-02T11:42:34.154Z,46880.00
2018-04-02T11:43:34.203Z,43168.00
2018-04-02T11:44:34.248Z,45056.00
2018-04-02T11:45:34.295Z,44608.00
2018-04-02T11:46:34.341Z,41920.00
2018-04-02T11:47:34.387Z,40800.00
2018-04-02T11:48:34.433Z,44576.00
2018-04-02T11:49:34.480Z,43008.00
2018-04-02T11:50:34.524Z,44416.00
2018-04-02T11:51:34.571Z,42176.00
2018-04-02T11:52:34.616Z,36992.00
2018-04-02T11:53:34.663Z,40416.00
2018-04-02T11:54:34.708Z,31328.00
2018-04-02T11:55:34.752Z,27808.00
2018-04-02T11:56:34.798Z,28352.00
2018-04-02T11:57:34.844Z,28320.00
2018-04-02T11:58:34.890Z,27264.00
2018-04-02T11:59:34.934Z,25792.00
2018-04-02T12:00:34.978Z,26688.00
2018-04-02T12:01:35.023Z,26624.00
2018-04-02T12:02:35.067Z,27936.00
2018-04-02T12:03:35.110Z,32736.00
2018-04-02T12:04:35.155Z,37472.00
2018-04-02T12:05:35.203Z,41472.00
2018-04-02T12:06:35.243Z,45568.00
2018-04-02T12:07:35.286Z,47104.00
2018-04-02T12:08:35.329Z,48000.00
2018-04-02T12:09:35.404Z,44256.00
2018-04-02T12:10:35.418Z,42784.00
2018-04-02T12:11:35.460Z,40960.00
2018-04-02T12:12:35.504Z,46464.00
2018-04-02T12:13:35.549Z,49536.00
2018-04-02T12:14:35.592Z,47200.00
2018-04-02T12:15:35.634Z,44288.00
2018-04-02T12:16:35.678Z,40032.00
2018-04-02T12:17:35.722Z,40672.00
2018-04-02T12:18:35.766Z,37696.00
2018-04-02T12:19:35.808Z,31840.00
2018-04-02T12:20:35.853Z,32480.00
2018-04-02T12:21:35.896Z,34208.00
2018-04-02T12:22:35.939Z,33792.00
2018-04-02T12:23:35.981Z,39808.00
2018-04-02T12:24:36.024Z,43776.00